Time;durP1;ratioP1;P1;durP2;ratioP2;P2;SDS_P1;SDS_P2;PMS_P1;PMS_P2;Temp;Humidity;BMP_temperature;BMP_pressure;BME280_temperature;BME280_humidity;BME280_pressure;Samples;Min_cycle;Max_cycle;Signal;HPM_P1;HPM_P2
2021/05/12 00:01:33;;;;;;;29.20;26.10;;;13.70;99.90;;;;;;5067302;28;20216;-33
2021/05/12 00:03:59;;;;;;;30.60;27.27;;;13.60;99.90;;;;;;5067382;28;20184;-33
2021/05/12 00:06:25;;;;;;;29.00;25.90;;;13.60;99.90;;;;;;5067516;28;20457;-33
2021/05/12 00:08:51;;;;;;;27.40;24.60;;;13.60;99.90;;;;;;5066777;28;20573;-33
2021/05/12 00:11:17;;;;;;;28.00;25.00;;;13.60;99.90;;;;;;5055561;28;20448;-33
2021/05/12 00:13:42;;;;;;;30.40;27.07;;;13.60;99.90;;;;;;5066283;28;20233;-33
2021/05/12 00:16:08;;;;;;;29.57;26.33;;;13.60;99.90;;;;;;5067381;28;20192;-33
2021/05/12 00:18:38;;;;;;;30.90;27.80;;;13.50;99.90;;;;;;5087401;28;20418;-33
2021/05/12 00:21:07;;;;;;;30.70;26.20;;;13.50;99.90;;;;;;5081966;28;20449;-33
2021/05/12 00:23:47;;;;;;;29.97;25.90;;;13.40;99.90;;;;;;5087272;28;20415;-33
2021/05/12 00:26:13;;;;;;;31.37;28.10;;;13.50;99.90;;;;;;5073746;28;20784;-33
2021/05/12 00:28:39;;;;;;;29.30;26.10;;;13.40;99.90;;;;;;5057904;28;20715;-33
2021/05/12 00:31:05;;;;;;;29.63;26.43;;;13.50;99.90;;;;;;5066604;28;20427;-33
2021/05/12 00:33:30;;;;;;;29.53;26.43;;;13.50;99.90;;;;;;5066775;28;20193;-33
2021/05/12 00:35:56;;;;;;;30.37;27.17;;;13.40;99.90;;;;;;5066716;28;20533;-33
2021/05/12 00:38:22;;;;;;;30.37;27.20;;;13.40;99.90;;;;;;5066192;28;20671;-33
2021/05/12 00:40:47;;;;;;;37.80;27.07;;;13.40;99.90;;;;;;5063514;28;20217;-33
2021/05/12 00:43:13;;;;;;;29.27;26.37;;;13.40;99.90;;;;;;5058229;28;20680;-33
2021/05/12 00:45:39;;;;;;;29.80;26.70;;;13.40;99.90;;;;;;5066660;28;20776;-33
2021/05/12 00:48:06;;;;;;;31.37;27.97;;;13.40;99.90;;;;;;5066438;28;20185;-33
2021/05/12 00:50:33;;;;;;;32.03;28.00;;;13.30;99.90;;;;;;5066179;28;20195;-33
2021/05/12 00:53:00;;;;;;;29.77;26.67;;;13.30;99.90;;;;;;5066260;28;20499;-33
2021/05/12 00:55:26;;;;;;;32.40;27.47;;;13.30;99.90;;;;;;5066222;28;20484;-33
2021/05/12 00:57:52;;;;;;;35.70;28.53;;;13.30;99.90;;;;;;5054050;28;20443;-33
2021/05/12 01:00:19;;;;;;;34.73;29.73;;;13.20;99.90;;;;;;5068948;28;20536;-33
2021/05/12 01:02:45;;;;;;;34.23;29.73;;;13.10;99.90;;;;;;5086769;28;20184;-33
2021/05/12 01:05:28;;;;;;;33.30;29.70;;;13.10;99.90;;;;;;5081741;28;20410;-33
2021/05/12 01:07:54;;;;;;;31.80;27.03;;;13.10;99.90;;;;;;5086789;28;20425;-33
2021/05/12 01:10:21;;;;;;;31.43;28.10;;;13.20;99.90;;;;;;5084658;28;20476;-33
2021/05/12 01:12:47;;;;;;;34.20;30.03;;;13.30;99.90;;;;;;5057784;28;20954;-33
2021/05/12 01:15:13;;;;;;;35.80;31.40;;;13.20;99.90;;;;;;5065528;28;20481;-33
2021/05/12 01:17:40;;;;;;;41.40;31.90;;;13.20;99.90;;;;;;5066220;28;20420;-33
2021/05/12 01:20:07;;;;;;;33.17;29.60;;;13.10;99.90;;;;;;5065276;28;20424;-33
2021/05/12 01:22:33;;;;;;;33.63;29.70;;;13.10;99.90;;;;;;5066084;28;20461;-33
2021/05/12 01:24:59;;;;;;;33.67;28.70;;;13.20;99.90;;;;;;5065955;28;20906;-33
2021/05/12 01:27:24;;;;;;;35.07;30.20;;;13.20;99.90;;;;;;5052611;28;20190;-33
2021/05/12 01:29:50;;;;;;;33.20;27.40;;;13.20;99.90;;;;;;5065341;28;20268;-33
2021/05/12 01:32:17;;;;;;;35.20;28.90;;;13.30;99.90;;;;;;5065855;28;20676;-33
2021/05/12 01:34:43;;;;;;;37.93;30.30;;;13.30;99.90;;;;;;5065721;28;20184;-33
2021/05/12 01:37:09;;;;;;;35.67;31.30;;;13.30;99.90;;;;;;5065815;28;20477;-33
2021/05/12 01:39:35;;;;;;;34.93;31.27;;;13.30;99.90;;;;;;5065511;28;20426;-33
2021/05/12 01:42:00;;;;;;;36.83;32.27;;;13.20;99.90;;;;;;5057429;28;20468;-33
2021/05/12 01:44:26;;;;;;;36.30;32.30;;;13.20;99.90;;;;;;5065464;28;20601;-33
2021/05/12 01:46:52;;;;;;;34.60;30.50;;;13.20;99.90;;;;;;5066027;28;20183;-33
2021/05/12 01:49:18;;;;;;;33.10;29.47;;;13.20;99.90;;;;;;5064990;28;20185;-33
2021/05/12 01:51:44;;;;;;;38.03;32.07;;;13.20;99.90;;;;;;5061547;28;20186;-33
2021/05/12 01:54:11;;;;;;;39.33;32.07;;;13.20;99.90;;;;;;5085982;28;20426;-33
2021/05/12 01:56:39;;;;;;;35.70;31.90;;;13.10;99.90;;;;;;5075955;28;20853;-33
2021/05/12 01:59:06;;;;;;;35.87;31.97;;;13.10;99.90;;;;;;5061243;28;20510;-33
2021/05/12 02:01:32;;;;;;;36.13;31.60;;;13.10;99.90;;;;;;5068793;28;20633;-33
2021/05/12 02:04:07;;;;;;;38.23;32.73;;;13.10;99.90;;;;;;5085664;28;20414;-33
2021/05/12 02:06:33;;;;;;;38.10;32.00;;;13.10;99.90;;;;;;5083871;28;20941;-33
2021/05/12 02:09:00;;;;;;;37.50;32.37;;;13.10;99.90;;;;;;5085218;28;20508;-33
2021/05/12 02:11:26;;;;;;;36.63;31.37;;;13.10;99.90;;;;;;5079903;28;20480;-33
2021/05/12 02:13:52;;;;;;;35.87;32.07;;;13.10;99.90;;;;;;5057861;28;20435;-33
2021/05/12 02:16:17;;;;;;;37.60;31.80;;;13.10;99.90;;;;;;5065031;28;20838;-33
2021/05/12 02:18:43;;;;;;;35.40;30.40;;;13.10;99.90;;;;;;5065298;28;20205;-33
2021/05/12 02:21:09;;;;;;;41.50;30.00;;;13.10;99.90;;;;;;5065197;28;20205;-33
2021/05/12 02:23:34;;;;;;;35.23;29.67;;;13.10;99.90;;;;;;5065731;28;20208;-33
2021/05/12 02:26:00;;;;;;;35.10;29.90;;;13.10;99.90;;;;;;5065287;28;20199;-33
2021/05/12 02:28:26;;;;;;;37.80;31.40;;;13.00;99.90;;;;;;5056937;28;20223;-33
2021/05/12 02:30:52;;;;;;;39.40;31.27;;;12.80;99.90;;;;;;5064837;28;20215;-33
2021/05/12 02:33:18;;;;;;;34.87;28.93;;;12.90;99.90;;;;;;5085902;28;20422;-34
2021/05/12 02:35:44;;;;;;;34.30;30.60;;;12.90;99.90;;;;;;5079376;28;20438;-33
2021/05/12 02:38:10;;;;;;;37.60;31.60;;;12.90;99.90;;;;;;5085751;28;20421;-33
2021/05/12 02:40:36;;;;;;;34.60;31.03;;;12.90;99.90;;;;;;5088482;28;20458;-33
2021/05/12 02:43:02;;;;;;;37.90;30.73;;;12.90;99.90;;;;;;5064597;28;20553;-33
2021/05/12 02:45:31;;;;;;;36.50;30.60;;;12.90;99.90;;;;;;5064645;28;20436;-33
2021/05/12 02:47:57;;;;;;;33.23;29.40;;;12.90;99.90;;;;;;5068700;28;20423;-33
2021/05/12 02:50:26;;;;;;;37.73;31.07;;;12.90;99.90;;;;;;5068443;28;20518;-33
2021/05/12 02:52:51;;;;;;;34.13;29.57;;;12.80;99.90;;;;;;5068992;28;21047;-33
2021/05/12 02:55:18;;;;;;;37.77;30.20;;;12.80;99.90;;;;;;5068863;28;20424;-33
2021/05/12 02:57:44;;;;;;;32.17;28.73;;;12.80;99.90;;;;;;5060294;28;20354;-33
2021/05/12 03:00:10;;;;;;;33.90;28.70;;;12.70;99.90;;;;;;5063774;28;20841;-33
2021/05/12 03:02:36;;;;;;;33.97;28.33;;;12.60;99.90;;;;;;5068362;28;20748;-33
2021/05/12 03:05:02;;;;;;;32.40;29.00;;;12.70;99.90;;;;;;5068718;28;20506;-33
2021/05/12 03:07:28;;;;;;;34.83;28.30;;;12.60;99.90;;;;;;5068484;28;20624;-33
2021/05/12 03:09:53;;;;;;;32.93;29.10;;;12.60;99.90;;;;;;5067760;28;20414;-33
2021/05/12 03:12:19;;;;;;;34.77;28.77;;;12.50;99.90;;;;;;5075700;28;20197;-33
2021/05/12 03:14:45;;;;;;;32.93;28.00;;;12.50;99.90;;;;;;5065278;28;20185;-33
2021/05/12 03:17:10;;;;;;;32.10;26.90;;;12.50;99.90;;;;;;5077507;28;20663;-33
2021/05/12 03:19:36;;;;;;;33.30;28.63;;;12.40;99.90;;;;;;5086257;28;20196;-33
2021/05/12 03:22:02;;;;;;;30.80;27.50;;;12.30;99.90;;;;;;5081819;28;20353;-33
2021/05/12 03:24:27;;;;;;;34.60;29.30;;;12.30;99.90;;;;;;5088137;28;20185;-33
2021/05/12 03:26:53;;;;;;;31.63;27.63;;;12.10;99.90;;;;;;5086920;28;20433;-33
2021/05/12 03:29:19;;;;;;;36.83;28.50;;;12.10;99.90;;;;;;5059338;28;20192;-33
2021/05/12 03:31:45;;;;;;;34.30;27.40;;;12.00;99.90;;;;;;5072363;28;20234;-33
2021/05/12 03:34:10;;;;;;;34.30;27.67;;;12.00;99.90;;;;;;5070551;28;20208;-33
2021/05/12 03:36:36;;;;;;;30.93;27.60;;;12.00;99.90;;;;;;5085686;28;20433;-33
2021/05/12 03:39:03;;;;;;;32.83;27.03;;;12.10;99.90;;;;;;5087600;28;20253;-33
2021/05/12 03:41:28;;;;;;;33.67;27.80;;;12.10;99.90;;;;;;5087766;28;20727;-33
2021/05/12 03:43:54;;;;;;;32.37;27.83;;;12.00;99.90;;;;;;5074620;28;20440;-33
2021/05/12 03:46:20;;;;;;;32.63;27.20;;;12.00;99.90;;;;;;5067578;28;20189;-33
2021/05/12 03:48:45;;;;;;;32.10;27.60;;;11.90;99.90;;;;;;5082500;28;20761;-33
2021/05/12 03:51:11;;;;;;;31.87;28.13;;;12.00;99.90;;;;;;5086179;28;20822;-33
2021/05/12 03:53:37;;;;;;;31.50;27.50;;;11.90;99.90;;;;;;5083261;28;20196;-33
2021/05/12 03:56:03;;;;;;;34.00;25.53;;;11.80;99.90;;;;;;5087622;28;20418;-33
2021/05/12 03:58:29;;;;;;;30.60;25.10;;;11.80;99.90;;;;;;5074074;28;21003;-33
2021/05/12 04:00:56;;;;;;;28.00;24.97;;;11.80;99.90;;;;;;5061147;28;20491;-33
2021/05/12 04:03:22;;;;;;;27.90;24.20;;;11.80;99.90;;;;;;5072717;28;20184;-33
2021/05/12 04:05:47;;;;;;;31.40;26.10;;;11.70;99.90;;;;;;5087747;28;20418;-33
2021/05/12 04:08:13;;;;;;;34.30;27.03;;;11.80;99.90;;;;;;5085192;28;20209;-33
2021/05/12 04:10:39;;;;;;;31.00;26.87;;;11.80;99.90;;;;;;5086071;28;20196;-33
2021/05/12 04:13:04;;;;;;;33.40;26.43;;;11.80;99.90;;;;;;5080965;28;20197;-33
2021/05/12 04:15:30;;;;;;;31.40;26.80;;;11.80;99.90;;;;;;5057586;28;20185;-33
2021/05/12 04:17:56;;;;;;;28.93;25.10;;;11.80;99.90;;;;;;5066812;28;20217;-33
2021/05/12 04:20:22;;;;;;;28.90;23.90;;;11.80;99.90;;;;;;5066608;28;20262;-33
2021/05/12 04:22:48;;;;;;;31.17;25.67;;;11.80;99.90;;;;;;5067145;28;20192;-33
2021/05/12 04:25:20;;;;;;;34.00;26.07;;;11.70;99.90;;;;;;5067046;28;20415;-33
2021/05/12 04:27:47;;;;;;;31.70;25.50;;;11.80;99.90;;;;;;5067607;28;20500;-33
2021/05/12 04:30:17;;;;;;;33.07;25.20;;;11.70;99.90;;;;;;5059601;28;20989;-33
2021/05/12 04:32:43;;;;;;;29.77;24.00;;;11.70;99.90;;;;;;5082151;28;20962;-33
2021/05/12 04:35:11;;;;;;;31.33;25.47;;;11.70;99.90;;;;;;5066874;28;20420;-33
2021/05/12 04:37:37;;;;;;;33.23;25.17;;;11.70;99.90;;;;;;5066622;28;20426;-33
2021/05/12 04:40:03;;;;;;;30.33;25.20;;;11.80;99.90;;;;;;5065847;28;20411;-33
2021/05/12 04:42:29;;;;;;;29.00;22.97;;;11.70;99.90;;;;;;5066756;28;20208;-33
2021/05/12 04:44:54;;;;;;;31.53;22.90;;;11.80;99.90;;;;;;5058923;28;20486;-33
2021/05/12 04:47:21;;;;;;;31.73;23.17;;;11.70;99.90;;;;;;5066534;28;20216;-33
2021/05/12 04:49:47;;;;;;;30.83;23.63;;;11.70;99.90;;;;;;5064542;28;20180;-33
2021/05/12 04:52:13;;;;;;;26.27;23.37;;;11.70;99.90;;;;;;5078740;28;20534;-33
2021/05/12 04:54:39;;;;;;;27.93;24.10;;;11.60;99.90;;;;;;5067514;28;20799;-33
2021/05/12 04:57:05;;;;;;;29.73;24.40;;;11.60;99.90;;;;;;5070966;28;20431;-33
2021/05/12 04:59:31;;;;;;;32.00;24.37;;;11.60;99.90;;;;;;5062827;28;20185;-33
2021/05/12 05:01:58;;;;;;;29.47;24.63;;;11.70;99.90;;;;;;5060357;28;20459;-33
2021/05/12 05:04:24;;;;;;;31.40;24.33;;;11.60;99.90;;;;;;5066110;28;20687;-33
2021/05/12 05:06:50;;;;;;;27.93;24.90;;;11.50;99.90;;;;;;5066779;28;20415;-33
2021/05/12 05:09:16;;;;;;;29.00;24.33;;;11.50;99.90;;;;;;5065170;28;20555;-33
2021/05/12 05:11:42;;;;;;;27.60;23.83;;;11.60;99.90;;;;;;5065689;28;20923;-33
2021/05/12 05:14:08;;;;;;;31.03;24.20;;;11.60;99.90;;;;;;5058690;28;20436;-33
2021/05/12 05:16:34;;;;;;;28.70;23.90;;;11.70;99.90;;;;;;5058169;28;20522;-33
2021/05/12 05:19:00;;;;;;;28.00;23.63;;;11.70;99.90;;;;;;5065741;28;20192;-33
2021/05/12 05:21:26;;;;;;;29.27;23.10;;;11.80;99.90;;;;;;5083562;28;20207;-33
2021/05/12 05:23:54;;;;;;;29.50;23.17;;;11.90;99.90;;;;;;5080977;28;20672;-33
2021/05/12 05:26:20;;;;;;;27.53;22.83;;;11.90;99.90;;;;;;5086219;28;20844;-33
2021/05/12 05:28:45;;;;;;;31.27;24.07;;;11.80;99.90;;;;;;5086031;28;20407;-33
2021/05/12 05:31:11;;;;;;;28.10;23.83;;;11.70;99.90;;;;;;5059170;28;20821;-33
2021/05/12 05:33:37;;;;;;;29.80;22.00;;;11.80;99.90;;;;;;5065894;28;20304;-33
2021/05/12 05:36:03;;;;;;;24.37;21.40;;;11.90;99.90;;;;;;5050633;28;20189;-33
2021/05/12 05:38:29;;;;;;;26.33;22.17;;;11.90;99.90;;;;;;5065847;28;20186;-33
2021/05/12 05:40:54;;;;;;;28.60;20.80;;;12.00;99.90;;;;;;5065516;28;20458;-33
2021/05/12 05:43:20;;;;;;;25.67;20.90;;;12.00;99.90;;;;;;5065681;28;20185;-33
2021/05/12 05:45:46;;;;;;;26.40;21.77;;;12.10;99.90;;;;;;5056783;28;20726;-33
2021/05/12 05:48:11;;;;;;;23.77;19.80;;;12.20;99.90;;;;;;5065510;28;20185;-33
2021/05/12 05:50:37;;;;;;;25.60;21.10;;;12.20;99.90;;;;;;5063750;28;20189;-33
2021/05/12 05:53:03;;;;;;;25.37;19.00;;;12.20;99.90;;;;;;5067188;28;20563;-33
2021/05/12 05:55:29;;;;;;;23.07;19.57;;;12.20;99.90;;;;;;5075064;28;20419;-33
2021/05/12 05:57:55;;;;;;;20.70;18.50;;;12.30;99.90;;;;;;5074921;28;20258;-33
2021/05/12 06:00:22;;;;;;;22.50;18.37;;;12.40;99.90;;;;;;5060738;28;20216;-33
2021/05/12 06:02:48;;;;;;;21.67;19.37;;;12.40;99.90;;;;;;5064087;28;20528;-33
2021/05/12 06:05:14;;;;;;;24.27;18.70;;;12.40;99.90;;;;;;5072584;28;20415;-33
2021/05/12 06:07:40;;;;;;;25.87;19.40;;;12.40;99.90;;;;;;5060708;28;20197;-33
2021/05/12 06:10:07;;;;;;;24.77;18.50;;;12.40;99.90;;;;;;5080921;28;20910;-33
2021/05/12 06:12:33;;;;;;;20.20;17.63;;;12.40;99.90;;;;;;5072487;28;20404;-33
2021/05/12 06:15:00;;;;;;;25.07;18.80;;;12.40;99.90;;;;;;5063725;28;20423;-33
2021/05/12 06:17:26;;;;;;;22.43;17.53;;;12.40;99.90;;;;;;5060122;28;20411;-33
2021/05/12 06:19:53;;;;;;;21.10;17.73;;;12.40;99.90;;;;;;5068416;28;20426;-33
2021/05/12 06:22:18;;;;;;;22.07;17.80;;;12.40;99.90;;;;;;5069064;28;20474;-34
2021/05/12 06:24:44;;;;;;;25.53;17.33;;;12.50;99.90;;;;;;5069241;28;20423;-33
2021/05/12 06:27:10;;;;;;;22.40;17.60;;;12.60;99.90;;;;;;5070328;28;20185;-33
2021/05/12 06:29:40;;;;;;;21.20;17.63;;;12.90;99.90;;;;;;5068582;28;20433;-33
2021/05/12 06:32:07;;;;;;;21.20;17.00;;;13.10;99.90;;;;;;5066818;28;20415;-33
2021/05/12 06:34:34;;;;;;;21.10;15.77;;;13.30;99.90;;;;;;5068486;28;20918;-33
2021/05/12 06:37:01;;;;;;;22.10;14.97;;;13.60;99.90;;;;;;5070250;28;20426;-33
2021/05/12 06:39:27;;;;;;;17.77;14.63;;;13.70;99.90;;;;;;5073023;28;20422;-33
2021/05/12 06:41:53;;;;;;;19.00;15.17;;;13.90;99.90;;;;;;5089487;28;20526;-33
2021/05/12 06:44:19;;;;;;;17.60;15.60;;;14.00;99.90;;;;;;5089349;28;20415;-33
2021/05/12 06:46:45;;;;;;;17.80;13.70;;;14.00;99.90;;;;;;5060436;28;20435;-33
2021/05/12 06:49:11;;;;;;;20.30;13.70;;;14.00;99.90;;;;;;5070976;28;20493;-33
2021/05/12 06:51:36;;;;;;;16.33;13.00;;;14.10;99.90;;;;;;5080843;28;20287;-33
2021/05/12 06:54:02;;;;;;;17.03;12.80;;;14.10;99.90;;;;;;5086210;28;20188;-33
2021/05/12 06:56:28;;;;;;;17.00;12.53;;;14.20;99.90;;;;;;5081488;28;20193;-33
2021/05/12 06:58:54;;;;;;;19.03;14.10;;;14.30;99.90;;;;;;5068084;28;20423;-33
2021/05/12 07:01:20;;;;;;;15.60;12.27;;;14.30;99.90;;;;;;5059496;28;20213;-33
2021/05/12 07:03:46;;;;;;;21.00;13.40;;;14.40;99.90;;;;;;5070817;28;20646;-33
2021/05/12 07:06:12;;;;;;;17.73;12.30;;;14.40;99.90;;;;;;5068739;28;20795;-33
2021/05/12 07:08:38;;;;;;;13.83;12.43;;;14.40;99.90;;;;;;5069156;28;20433;-33
2021/05/12 07:11:05;;;;;;;20.30;12.50;;;14.40;99.90;;;;;;5066687;28;20209;-33
2021/05/12 07:13:31;;;;;;;19.03;11.93;;;14.50;99.90;;;;;;5070093;28;20216;-33
2021/05/12 07:15:56;;;;;;;14.20;11.30;;;14.50;99.90;;;;;;5066754;28;20864;-33
2021/05/12 07:18:22;;;;;;;13.53;11.80;;;14.50;99.90;;;;;;5064943;28;20185;-33
2021/05/12 07:20:48;;;;;;;15.87;11.20;;;14.50;99.90;;;;;;5069195;28;20213;-33
2021/05/12 07:23:24;;;;;;;17.63;12.40;;;14.50;99.90;;;;;;5067234;28;20214;-33
2021/05/12 07:25:50;;;;;;;14.90;11.67;;;14.50;99.90;;;;;;5071463;28;20431;-33
2021/05/12 07:28:17;;;;;;;13.80;11.90;;;14.40;99.90;;;;;;5068782;28;20454;-33
2021/05/12 07:30:44;;;;;;;13.80;11.37;;;14.40;99.90;;;;;;5066880;28;21002;-33
2021/05/12 07:33:10;;;;;;;15.53;12.20;;;14.50;99.90;;;;;;5065776;28;20465;-33
2021/05/12 07:35:36;;;;;;;15.90;11.97;;;14.40;99.90;;;;;;5071421;28;20423;-33
2021/05/12 07:38:01;;;;;;;14.43;11.37;;;14.50;99.90;;;;;;5087940;28;20418;-33
2021/05/12 07:40:33;;;;;;;14.37;11.37;;;14.50;99.90;;;;;;5085343;28;20753;-33
2021/05/12 07:43:00;;;;;;;14.50;11.13;;;14.60;99.90;;;;;;5088262;28;20188;-33
2021/05/12 07:45:26;;;;;;;14.20;11.90;;;14.60;99.90;;;;;;5083113;28;20517;-33
2021/05/12 07:47:52;;;;;;;12.97;11.57;;;14.70;99.90;;;;;;5060031;28;20939;-33
2021/05/12 07:50:18;;;;;;;13.30;11.90;;;14.80;99.90;;;;;;5074094;28;20502;-33
2021/05/12 07:52:44;;;;;;;12.90;11.60;;;14.90;99.90;;;;;;5088061;28;20460;-33
2021/05/12 07:55:10;;;;;;;17.67;13.27;;;14.90;99.90;;;;;;5076113;28;20454;-33
2021/05/12 07:57:36;;;;;;;13.90;12.27;;;15.00;99.90;;;;;;5087799;28;20180;-33
2021/05/12 08:00:04;;;;;;;16.57;12.77;;;15.00;99.90;;;;;;5086941;28;20422;-33
2021/05/12 08:02:30;;;;;;;14.70;13.20;;;15.00;99.90;;;;;;5060249;28;20673;-33
2021/05/12 08:04:56;;;;;;;14.97;13.53;;;15.00;99.90;;;;;;5067060;28;20455;-33
2021/05/12 08:07:23;;;;;;;15.47;13.93;;;15.00;99.90;;;;;;5067819;28;20200;-34
2021/05/12 08:09:49;;;;;;;17.30;13.80;;;15.00;99.90;;;;;;5066177;28;20184;-33
2021/05/12 08:12:15;;;;;;;17.50;14.50;;;15.00;99.90;;;;;;5087555;28;20451;-33
2021/05/12 08:14:40;;;;;;;16.03;14.30;;;15.00;99.90;;;;;;5073461;28;20291;-33
2021/05/12 08:17:06;;;;;;;17.07;15.40;;;15.10;99.90;;;;;;5060012;28;20202;-33
2021/05/12 08:19:31;;;;;;;19.50;16.70;;;15.10;99.90;;;;;;5064235;28;20268;-33
2021/05/12 08:22:01;;;;;;;18.40;16.20;;;15.00;99.90;;;;;;5062118;28;20209;-33
2021/05/12 08:24:26;;;;;;;19.63;16.80;;;15.00;99.90;;;;;;5062598;28;20196;-33
2021/05/12 08:26:52;;;;;;;16.10;14.70;;;15.00;99.90;;;;;;5067276;28;20779;-33
2021/05/12 08:29:18;;;;;;;18.00;16.20;;;15.10;99.90;;;;;;5066417;28;20195;-33
2021/05/12 08:31:45;;;;;;;18.60;16.77;;;15.10;99.90;;;;;;5057532;28;20529;-33
2021/05/12 08:34:11;;;;;;;18.00;16.20;;;15.30;99.90;;;;;;5061648;28;20550;-33
2021/05/12 08:36:38;;;;;;;17.53;15.73;;;15.30;99.90;;;;;;5075493;28;20529;-33
2021/05/12 08:39:06;;;;;;;19.23;17.30;;;15.30;99.90;;;;;;5085985;28;20545;-33
2021/05/12 08:41:35;;;;;;;18.87;16.90;;;15.40;99.90;;;;;;5075722;28;20493;-33
2021/05/12 08:44:01;;;;;;;18.97;17.03;;;15.40;99.90;;;;;;5087106;28;20426;-33
2021/05/12 08:46:28;;;;;;;19.07;16.77;;;15.50;99.90;;;;;;5077202;28;20427;-33
2021/05/12 08:48:54;;;;;;;16.70;15.20;;;15.60;99.90;;;;;;5063696;28;20783;-33
2021/05/12 08:51:21;;;;;;;16.20;14.53;;;15.70;99.90;;;;;;5066316;28;20411;-33
2021/05/12 08:53:48;;;;;;;15.23;13.83;;;15.80;99.90;;;;;;5066628;28;20427;-33
2021/05/12 08:56:13;;;;;;;16.80;14.53;;;15.90;99.90;;;;;;5066283;28;20427;-33
2021/05/12 08:58:39;;;;;;;17.07;15.57;;;15.90;99.90;;;;;;5082741;28;20767;-33
2021/05/12 09:01:05;;;;;;;13.97;12.67;;;15.90;99.90;;;;;;5079827;28;20232;-33
2021/05/12 09:03:31;;;;;;;14.50;13.30;;;16.00;99.90;;;;;;5058667;28;20294;-33
2021/05/12 09:05:58;;;;;;;17.40;14.30;;;16.00;99.90;;;;;;5067829;28;20916;-33
2021/05/12 09:08:27;;;;;;;15.43;14.00;;;15.90;99.90;;;;;;5082632;28;20206;-33
2021/05/12 09:10:57;;;;;;;15.80;14.30;;;15.90;99.90;;;;;;5079988;28;20883;-33
2021/05/12 09:13:41;;;;;;;15.30;13.77;;;15.90;99.90;;;;;;5081788;28;20796;-33
2021/05/12 09:16:23;;;;;;;17.17;15.30;;;15.90;99.90;;;;;;5063725;28;21009;-33
2021/05/12 09:19:04;;;;;;;17.90;16.20;;;15.90;99.90;;;;;;5057590;28;20507;-33
2021/05/12 09:21:53;;;;;;;18.57;16.57;;;15.90;99.90;;;;;;5066297;28;20450;-33
2021/05/12 09:24:24;;;;;;;16.67;15.17;;;15.80;99.90;;;;;;5066043;28;20419;-33
2021/05/12 09:26:52;;;;;;;15.67;13.97;;;15.80;99.90;;;;;;5066609;28;20676;-33
2021/05/12 09:29:26;;;;;;;15.03;12.80;;;15.90;99.90;;;;;;5065417;28;20415;-33
2021/05/12 09:32:00;;;;;;;13.03;11.73;;;16.00;99.90;;;;;;5059335;28;21009;-33
2021/05/12 09:34:27;;;;;;;12.80;11.53;;;16.10;99.90;;;;;;5063375;28;20572;-33
2021/05/12 09:36:52;;;;;;;16.90;15.13;;;16.10;99.90;;;;;;5066215;28;20425;-33
2021/05/12 09:39:18;;;;;;;16.13;14.57;;;16.10;99.90;;;;;;5065540;28;20415;-33
2021/05/12 09:41:44;;;;;;;16.23;14.90;;;16.10;99.90;;;;;;5065763;28;20204;-33
2021/05/12 09:44:10;;;;;;;15.70;14.20;;;16.10;99.90;;;;;;5065720;28;20185;-33
2021/05/12 09:46:38;;;;;;;16.20;14.70;;;16.10;99.90;;;;;;5061096;28;20549;-33
2021/05/12 09:49:03;;;;;;;17.20;15.50;;;16.20;99.90;;;;;;5065498;28;20411;-33
2021/05/12 09:51:35;;;;;;;16.03;14.53;;;16.20;99.90;;;;;;5071027;28;20417;-33
2021/05/12 09:54:02;;;;;;;16.60;14.97;;;16.30;99.90;;;;;;5088333;28;20184;-33
2021/05/12 09:56:43;;;;;;;15.90;14.50;;;16.30;99.90;;;;;;5086343;28;20492;-33
2021/05/12 09:59:20;;;;;;;16.63;15.10;;;16.20;99.90;;;;;;5089781;28;20505;-33
2021/05/12 10:01:48;;;;;;;15.90;14.47;;;16.30;99.90;;;;;;5081513;28;20503;-33
2021/05/12 10:04:19;;;;;;;19.90;18.03;;;16.30;99.90;;;;;;5063770;28;20849;-33
2021/05/12 10:06:45;;;;;;;18.37;16.67;;;16.30;99.90;;;;;;5069468;28;20429;-33
2021/05/12 10:09:23;;;;;;;22.37;20.27;;;16.20;99.90;;;;;;5068733;28;20562;-33
2021/05/12 10:12:06;;;;;;;20.10;18.20;;;16.30;99.90;;;;;;5069335;28;20204;-33
2021/05/12 10:14:34;;;;;;;18.60;16.90;;;16.30;99.90;;;;;;5070006;28;20434;-33
2021/05/12 10:17:01;;;;;;;18.33;16.73;;;16.40;99.90;;;;;;5069118;28;20782;-33
2021/05/12 10:19:27;;;;;;;20.40;18.30;;;16.40;99.90;;;;;;5066933;28;20420;-33
2021/05/12 10:21:53;;;;;;;20.90;18.90;;;16.40;99.90;;;;;;5069227;28;20458;-33
2021/05/12 10:24:19;;;;;;;21.00;18.77;;;16.30;99.90;;;;;;5069360;28;20422;-33
2021/05/12 10:26:46;;;;;;;19.67;17.90;;;16.20;99.90;;;;;;5069275;28;20214;-33
2021/05/12 10:29:17;;;;;;;21.63;19.40;;;16.30;99.90;;;;;;5067380;28;20187;-33
2021/05/12 10:31:43;;;;;;;20.67;18.47;;;16.30;99.90;;;;;;5084611;28;20423;-33
2021/05/12 10:34:09;;;;;;;21.63;19.70;;;16.30;99.90;;;;;;5060516;28;20419;-33
2021/05/12 10:36:35;;;;;;;18.57;16.87;;;16.30;99.90;;;;;;5067564;28;20429;-33
2021/05/12 10:39:03;;;;;;;15.33;13.83;;;16.30;99.90;;;;;;5083585;28;20695;-33
2021/05/12 10:41:38;;;;;;;14.47;12.97;;;16.40;99.90;;;;;;5086319;28;20200;-33
2021/05/12 10:44:11;;;;;;;9.43;8.63;;;16.40;99.90;;;;;;5087687;28;20413;-33
2021/05/12 10:46:46;;;;;;;9.73;8.33;;;16.40;99.90;;;;;;5088971;28;20422;-33
2021/05/12 10:49:21;;;;;;;11.70;9.30;;;16.40;99.90;;;;;;5058539;28;20489;-33
2021/05/12 10:51:48;;;;;;;10.00;9.00;;;16.50;99.90;;;;;;5069991;28;20484;-33
2021/05/12 10:54:14;;;;;;;10.33;7.90;;;16.60;99.90;;;;;;5076008;28;20885;-33
2021/05/12 10:56:43;;;;;;;8.80;8.07;;;16.70;99.90;;;;;;5076972;28;20556;-33
2021/05/12 10:59:14;;;;;;;9.60;8.70;;;16.80;99.90;;;;;;5079667;28;20430;-33
2021/05/12 11:01:42;;;;;;;10.70;8.57;;;16.90;99.90;;;;;;5067773;28;20537;-33
2021/05/12 11:04:10;;;;;;;9.07;8.10;;;16.90;99.90;;;;;;5067249;28;20511;-33
2021/05/12 11:06:35;;;;;;;10.10;9.20;;;16.90;99.90;;;;;;5084072;28;20419;-33
2021/05/12 11:09:09;;;;;;;10.90;9.90;;;17.00;99.90;;;;;;5067718;28;20474;-33
2021/05/12 11:11:59;;;;;;;12.63;11.20;;;17.10;99.90;;;;;;5067332;28;20185;-33
2021/05/12 11:14:32;;;;;;;10.60;9.80;;;17.20;99.90;;;;;;5068103;28;20465;-33
2021/05/12 11:17:00;;;;;;;12.00;10.87;;;17.40;99.90;;;;;;5068290;28;20427;-33
2021/05/12 11:19:58;;;;;;;13.33;11.37;;;17.40;99.90;;;;;;5059979;28;20437;-33
2021/05/12 11:22:45;;;;;;;6.60;6.00;;;17.40;99.90;;;;;;5071829;28;20493;-33
2021/05/12 11:33:29;;;;;;;6.40;5.50;;;17.10;97.30;;;;;;5077496;28;20873;-33
2021/05/12 11:36:15;;;;;;;5.83;5.20;;;17.10;95.40;;;;;;5066971;28;20453;-33
2021/05/12 11:38:41;;;;;;;6.00;5.40;;;17.00;95.90;;;;;;5081957;28;20422;-33
2021/05/12 11:41:19;;;;;;;8.63;7.83;;;17.10;96.10;;;;;;5083557;28;20524;-33
2021/05/12 11:43:44;;;;;;;10.47;9.57;;;17.10;97.60;;;;;;5082448;28;20429;-33
2021/05/12 11:46:21;;;;;;;8.80;8.00;;;17.30;99.70;;;;;;5087859;28;20414;-33
2021/05/12 11:48:49;;;;;;;9.40;8.60;;;17.20;96.90;;;;;;5064666;28;20186;-33
2021/05/12 11:51:45;;;;;;;10.57;9.60;;;17.30;97.90;;;;;;5067081;28;20887;-33
2021/05/12 11:54:18;;;;;;;14.37;13.10;;;17.30;98.70;;;;;;5079769;28;20865;-33
2021/05/12 11:56:49;;;;;;;15.77;14.17;;;17.20;99.90;;;;;;5068636;28;20442;-33
2021/05/12 11:59:21;;;;;;;15.80;14.10;;;17.20;99.90;;;;;;5062389;28;20416;-33
2021/05/12 12:01:51;;;;;;;15.73;14.40;;;17.10;99.90;;;;;;5062158;28;20459;-33
2021/05/12 12:04:22;;;;;;;12.93;11.83;;;17.00;99.90;;;;;;5059199;28;20954;-33
2021/05/12 12:06:48;;;;;;;12.23;11.27;;;17.00;99.90;;;;;;5078309;28;20427;-33
2021/05/12 12:09:15;;;;;;;9.77;8.83;;;16.90;99.90;;;;;;5065847;28;20501;-33
2021/05/12 12:11:42;;;;;;;14.53;12.87;;;16.90;99.90;;;;;;5066346;28;20489;-33
2021/05/12 12:14:09;;;;;;;12.20;10.80;;;16.90;99.90;;;;;;5066558;28;20450;-33
2021/05/12 12:16:40;;;;;;;14.70;11.63;;;16.90;99.90;;;;;;5082233;28;20435;-33
2021/05/12 12:19:17;;;;;;;75.03;60.43;;;16.90;99.90;;;;;;5063260;28;20439;-33
2021/05/12 12:21:46;;;;;;;34.67;31.00;;;16.80;99.90;;;;;;5066823;28;20899;-33
2021/05/12 12:24:15;;;;;;;14.03;12.73;;;16.80;99.90;;;;;;5067404;28;20750;-33
2021/05/12 12:26:52;;;;;;;12.40;11.20;;;16.80;99.90;;;;;;5066765;28;20423;-33
2021/05/12 12:29:24;;;;;;;11.00;10.17;;;16.80;99.90;;;;;;5066363;28;20439;-33
2021/05/12 12:31:53;;;;;;;12.47;11.40;;;16.90;99.90;;;;;;5067114;28;20423;-33
2021/05/12 12:34:23;;;;;;;11.70;10.70;;;16.90;99.90;;;;;;5053718;28;20515;-33
2021/05/12 12:37:16;;;;;;;12.37;11.17;;;16.90;99.90;;;;;;5061962;28;20428;-33
2021/05/12 12:39:44;;;;;;;11.50;10.40;;;17.00;99.90;;;;;;5058662;28;20514;-33